createdAt,value
2018-05-13T00:00:15.982Z,95.90
2018-05-13T00:03:13.767Z,95.90
2018-05-13T00:06:11.706Z,96.10
2018-05-13T00:09:10.594Z,96.10
2018-05-13T00:12:09.490Z,96.40
2018-05-13T00:15:07.395Z,96.50
2018-05-13T00:18:05.477Z,96.90
2018-05-13T00:21:04.254Z,96.60
2018-05-13T00:24:01.933Z,96.60
2018-05-13T00:26:59.046Z,96.80
2018-05-13T00:29:57.610Z,96.90
2018-05-13T00:32:56.321Z,97.00
2018-05-13T00:35:54.510Z,97.00
2018-05-13T00:38:52.067Z,97.10
2018-05-13T00:41:50.265Z,97.40
2018-05-13T00:44:47.955Z,97.40
2018-05-13T00:47:45.860Z,97.40
2018-05-13T00:50:43.829Z,97.90
2018-05-13T00:53:41.606Z,97.60
2018-05-13T00:56:39.432Z,97.60
2018-05-13T00:59:38.148Z,97.70
2018-05-13T01:02:35.941Z,97.90
2018-05-13T01:05:33.750Z,97.90
2018-05-13T01:08:31.659Z,98.00
2018-05-13T01:11:29.316Z,98.20
2018-05-13T01:14:27.200Z,98.50
2018-05-13T01:17:25.002Z,98.30
2018-05-13T01:20:22.621Z,98.40
2018-05-13T01:23:19.679Z,98.70
2018-05-13T01:26:17.666Z,99.00
2018-05-13T01:29:14.706Z,99.00
2018-05-13T01:32:11.954Z,99.10
2018-05-13T01:35:10.715Z,99.30
2018-05-13T01:38:08.528Z,99.40
2018-05-13T01:41:06.210Z,99.50
2018-05-13T01:44:03.850Z,99.60
2018-05-13T01:47:01.747Z,99.80
2018-05-13T01:49:59.554Z,99.70
2018-05-13T01:52:57.383Z,99.80
2018-05-13T01:55:55.287Z,99.70
2018-05-13T01:58:53.279Z,99.60
2018-05-13T02:01:51.172Z,99.60
2018-05-13T02:04:48.325Z,99.80
2018-05-13T02:07:46.191Z,99.90
2018-05-13T02:10:44.156Z,99.90
2018-05-13T02:13:42.129Z,99.80
2018-05-13T02:16:39.929Z,99.90
2018-05-13T02:19:37.790Z,99.90
2018-05-13T02:22:35.564Z,99.80
2018-05-13T02:25:33.488Z,99.80
2018-05-13T02:28:31.381Z,99.80
2018-05-13T02:31:29.381Z,99.90
2018-05-13T02:34:27.631Z,99.90
2018-05-13T02:37:25.603Z,99.90
2018-05-13T02:40:23.370Z,99.90
2018-05-13T02:43:21.308Z,99.90
2018-05-13T02:46:19.272Z,99.90
2018-05-13T02:49:17.109Z,99.90
2018-05-13T02:52:15.156Z,99.90
2018-05-13T02:55:13.993Z,99.90
2018-05-13T02:58:11.930Z,99.80
2018-05-13T03:01:09.700Z,99.80
2018-05-13T03:04:07.424Z,99.70
2018-05-13T03:07:05.216Z,99.60
2018-05-13T03:10:02.301Z,99.60
2018-05-13T03:13:00.007Z,99.60
2018-05-13T03:15:57.976Z,99.50
2018-05-13T03:18:55.767Z,99.50
2018-05-13T03:21:53.727Z,99.50
2018-05-13T03:24:51.540Z,99.40
2018-05-13T03:27:49.432Z,99.40
2018-05-13T03:30:47.306Z,99.20
2018-05-13T03:33:45.172Z,99.20
2018-05-13T03:36:43.260Z,98.90
2018-05-13T03:39:41.046Z,98.80
2018-05-13T03:42:38.948Z,98.40
2018-05-13T03:45:36.869Z,98.10
2018-05-13T03:48:34.825Z,97.90
2018-05-13T03:51:32.854Z,98.00
2018-05-13T03:54:30.610Z,97.90
2018-05-13T03:57:28.383Z,97.10
2018-05-13T04:00:26.365Z,97.10
2018-05-13T04:03:24.077Z,96.90
2018-05-13T04:06:22.814Z,96.20
2018-05-13T04:09:32.896Z,96.20
2018-05-13T04:12:42.776Z,95.50
2018-05-13T04:15:49.664Z,95.30
2018-05-13T04:18:47.291Z,94.90
2018-05-13T04:21:45.996Z,94.90
2018-05-13T04:24:42.934Z,94.60
2018-05-13T04:27:40.815Z,94.80
2018-05-13T04:30:37.969Z,94.40
2018-05-13T04:33:35.811Z,93.80
2018-05-13T04:36:32.842Z,93.00
2018-05-13T04:39:29.899Z,92.00
2018-05-13T04:42:27.868Z,91.80
2018-05-13T04:45:25.009Z,91.70
2018-05-13T04:48:22.844Z,91.00
2018-05-13T04:51:20.648Z,91.00
2018-05-13T04:54:19.401Z,90.80
2018-05-13T04:57:16.543Z,91.20
2018-05-13T05:00:14.448Z,90.20
2018-05-13T05:03:12.435Z,90.10
2018-05-13T05:06:10.216Z,89.70
2018-05-13T05:09:07.197Z,89.50
2018-05-13T05:12:04.224Z,88.90
2018-05-13T05:15:02.026Z,88.00
2018-05-13T05:17:59.914Z,86.80
2018-05-13T05:20:57.802Z,86.10
2018-05-13T05:23:55.619Z,85.80
2018-05-13T05:26:52.753Z,85.40
2018-05-13T05:29:50.948Z,83.30
2018-05-13T05:32:48.542Z,83.20
2018-05-13T05:35:46.469Z,83.20
2018-05-13T05:38:44.169Z,81.80
2018-05-13T05:41:41.855Z,81.10
2018-05-13T05:44:39.828Z,80.70
2018-05-13T05:47:37.630Z,77.40
2018-05-13T05:50:34.635Z,76.50
2018-05-13T05:53:32.652Z,77.50
2018-05-13T05:56:30.479Z,76.30
2018-05-13T05:59:27.601Z,74.20
2018-05-13T06:02:25.399Z,72.20
2018-05-13T06:05:23.156Z,73.80
2018-05-13T06:08:24.183Z,76.10
2018-05-13T06:11:22.055Z,75.20
2018-05-13T06:14:19.936Z,75.10
2018-05-13T06:17:16.979Z,75.80
2018-05-13T06:20:14.110Z,76.00
2018-05-13T06:23:11.817Z,76.00
2018-05-13T06:26:09.826Z,76.20
2018-05-13T06:29:07.668Z,75.70
2018-05-13T06:32:12.706Z,75.10
2018-05-13T06:35:11.664Z,74.80
2018-05-13T06:38:09.542Z,73.00
2018-05-13T06:41:07.527Z,72.60
2018-05-13T06:44:05.498Z,68.40
2018-05-13T06:47:03.285Z,59.30
2018-05-13T06:50:01.179Z,53.60
2018-05-13T06:52:59.419Z,49.40
2018-05-13T06:56:12.123Z,49.40
2018-05-13T06:59:09.993Z,46.80
2018-05-13T07:02:09.263Z,45.70
2018-05-13T07:05:07.343Z,45.80
2018-05-13T07:08:06.104Z,44.60
2018-05-13T07:11:03.849Z,44.60
2018-05-13T07:14:02.029Z,44.40
2018-05-13T07:16:59.141Z,44.40
2018-05-13T07:19:57.965Z,45.00
2018-05-13T07:22:55.870Z,45.20
2018-05-13T07:25:53.761Z,45.60
2018-05-13T07:28:51.797Z,46.30
2018-05-13T07:31:48.816Z,44.60
2018-05-13T07:34:46.362Z,42.50
2018-05-13T07:37:44.455Z,43.20
2018-05-13T07:40:42.132Z,43.50
2018-05-13T07:43:39.932Z,43.90
2018-05-13T07:46:37.769Z,42.40
2018-05-13T07:49:35.586Z,41.60
2018-05-13T07:52:33.123Z,42.50
2018-05-13T07:55:31.878Z,39.50
2018-05-13T07:58:29.962Z,40.20
2018-05-13T08:01:27.875Z,40.20
2018-05-13T08:04:25.722Z,39.70
2018-05-13T08:07:23.699Z,39.50
2018-05-13T08:10:21.405Z,40.00
2018-05-13T08:13:19.339Z,40.80
2018-05-13T08:16:17.120Z,39.30
2018-05-13T08:19:14.792Z,39.20
2018-05-13T08:22:11.935Z,37.60
2018-05-13T08:25:09.853Z,36.30
2018-05-13T08:28:07.543Z,36.10
2018-05-13T08:31:06.528Z,36.30
2018-05-13T08:34:04.576Z,36.30
2018-05-13T08:37:02.310Z,35.80
2018-05-13T08:40:00.406Z,36.00
2018-05-13T08:42:58.084Z,37.30
2018-05-13T08:45:55.419Z,36.40
2018-05-13T08:48:53.433Z,38.50
2018-05-13T08:51:51.298Z,38.70
2018-05-13T08:54:49.283Z,38.70
2018-05-13T08:57:48.222Z,38.50
2018-05-13T09:00:45.337Z,38.60
2018-05-13T09:03:43.368Z,39.00
2018-05-13T09:06:41.443Z,39.70
2018-05-13T09:09:39.533Z,39.30
2018-05-13T09:12:37.340Z,38.50
2018-05-13T09:15:35.371Z,38.60
2018-05-13T09:18:33.365Z,38.60
2018-05-13T09:21:31.217Z,39.90
2018-05-13T09:24:29.016Z,38.30
2018-05-13T09:30:39.324Z,39.00
2018-05-13T09:33:37.217Z,37.00
2018-05-13T09:36:35.401Z,38.70
2018-05-13T09:39:33.147Z,38.50
2018-05-13T09:42:30.915Z,37.80
2018-05-13T09:45:28.825Z,38.20
2018-05-13T09:48:26.675Z,38.20
2018-05-13T09:51:24.601Z,38.20
2018-05-13T09:54:23.448Z,38.50
2018-05-13T09:57:21.058Z,38.00
2018-05-13T10:00:19.769Z,37.00
2018-05-13T10:03:18.690Z,36.70
2018-05-13T10:06:16.666Z,37.70
2018-05-13T10:09:14.446Z,38.90
2018-05-13T10:12:12.380Z,38.00
2018-05-13T10:15:10.299Z,38.00
2018-05-13T10:18:08.124Z,37.90
2018-05-13T10:21:06.136Z,36.50
2018-05-13T10:24:03.865Z,36.50
2018-05-13T10:27:01.544Z,36.40
2018-05-13T10:29:59.335Z,36.50
2018-05-13T10:32:57.015Z,36.90
2018-05-13T10:35:55.183Z,36.10
2018-05-13T10:38:52.679Z,36.20
2018-05-13T10:41:50.617Z,35.50
2018-05-13T10:44:48.184Z,36.10
2018-05-13T10:47:45.977Z,35.10
2018-05-13T10:50:43.955Z,33.90
2018-05-13T10:53:41.738Z,35.00
2018-05-13T10:56:39.792Z,33.00
2018-05-13T10:59:37.683Z,33.60
2018-05-13T11:02:36.808Z,33.10
2018-05-13T11:05:34.709Z,33.10
2018-05-13T11:08:32.754Z,32.70
2018-05-13T11:11:30.503Z,32.70
2018-05-13T11:14:29.232Z,32.00
2018-05-13T11:17:28.208Z,32.60
2018-05-13T11:20:26.091Z,32.70
2018-05-13T11:23:23.868Z,32.70
2018-05-13T11:26:21.699Z,32.70
2018-05-13T11:29:19.816Z,32.20
2018-05-13T11:32:17.725Z,32.70
2018-05-13T11:35:15.683Z,32.30
2018-05-13T11:38:13.623Z,33.00
2018-05-13T11:41:10.647Z,33.50
2018-05-13T11:44:08.590Z,32.90
2018-05-13T11:47:06.510Z,32.60
2018-05-13T11:50:04.391Z,32.20
2018-05-13T11:53:02.321Z,32.20
2018-05-13T11:56:01.059Z,32.70
2018-05-13T11:58:59.055Z,32.30
2018-05-13T12:01:56.932Z,31.50
2018-05-13T12:04:54.698Z,30.70
2018-05-13T12:07:52.474Z,30.90
2018-05-13T12:10:50.324Z,31.60
2018-05-13T12:13:48.462Z,32.20
2018-05-13T12:16:46.248Z,31.80
2018-05-13T12:19:44.236Z,30.60
2018-05-13T12:22:41.888Z,30.60
2018-05-13T12:25:39.947Z,31.20
2018-05-13T12:28:37.566Z,31.90
2018-05-13T12:31:35.370Z,30.70
2018-05-13T12:34:33.579Z,31.20
2018-05-13T12:37:31.535Z,31.10
2018-05-13T12:40:29.609Z,30.90
2018-05-13T12:43:28.773Z,31.30
2018-05-13T12:46:27.704Z,31.30
2018-05-13T12:49:25.623Z,31.40
2018-05-13T12:52:23.600Z,31.50
2018-05-13T12:55:21.463Z,31.30
2018-05-13T12:58:18.648Z,31.90
2018-05-13T13:01:16.637Z,31.30
2018-05-13T13:04:13.585Z,30.40
2018-05-13T13:07:12.221Z,30.70
2018-05-13T13:10:10.056Z,31.00
2018-05-13T13:13:08.459Z,30.60
2018-05-13T13:16:05.919Z,30.80
2018-05-13T13:19:03.779Z,30.40
2018-05-13T13:22:01.778Z,30.00
2018-05-13T13:24:59.752Z,30.00
2018-05-13T13:27:57.622Z,30.00
2018-05-13T13:30:54.692Z,30.00
2018-05-13T13:33:52.601Z,30.60
2018-05-13T13:36:50.742Z,29.60
2018-05-13T13:39:48.074Z,30.20
2018-05-13T13:42:45.539Z,30.40
2018-05-13T13:45:44.111Z,30.70
2018-05-13T13:48:42.770Z,30.60
2018-05-13T13:51:41.696Z,31.10
2018-05-13T13:54:39.491Z,30.00
2018-05-13T13:57:37.410Z,30.00
2018-05-13T14:00:35.016Z,29.90
2018-05-13T14:03:33.592Z,30.10
2018-05-13T14:06:31.160Z,30.90
2018-05-13T14:09:28.954Z,30.60
2018-05-13T14:12:27.738Z,30.90
2018-05-13T14:15:25.682Z,30.70
2018-05-13T14:18:23.419Z,30.90
2018-05-13T14:21:21.180Z,31.10
2018-05-13T14:24:19.157Z,30.40
2018-05-13T14:27:17.455Z,31.40
2018-05-13T14:30:15.566Z,31.20
2018-05-13T14:33:12.749Z,31.20
2018-05-13T14:36:10.799Z,31.40
2018-05-13T14:39:12.125Z,31.40
2018-05-13T14:42:06.062Z,32.30
2018-05-13T14:45:03.702Z,31.90
2018-05-13T14:48:01.480Z,32.60
2018-05-13T14:50:59.281Z,32.30
2018-05-13T14:53:57.138Z,32.00
2018-05-13T14:56:55.080Z,32.10
2018-05-13T14:59:52.972Z,32.90
2018-05-13T15:02:51.050Z,33.00
2018-05-13T15:05:50.025Z,33.70
2018-05-13T15:08:47.069Z,33.70
2018-05-13T15:11:44.895Z,33.60
2018-05-13T15:14:42.864Z,34.20
2018-05-13T15:17:40.193Z,34.40
2018-05-13T15:20:37.220Z,34.70
2018-05-13T15:23:34.265Z,34.00
2018-05-13T15:26:32.101Z,34.20
2018-05-13T15:29:29.842Z,34.20
2018-05-13T15:32:27.731Z,34.60
2018-05-13T15:35:25.549Z,35.10
2018-05-13T15:38:23.256Z,34.90
2018-05-13T15:41:21.206Z,34.70
2018-05-13T15:44:18.984Z,35.10
2018-05-13T15:47:16.701Z,35.00
2018-05-13T15:50:15.702Z,35.30
2018-05-13T15:53:13.636Z,35.40
2018-05-13T15:56:11.437Z,36.20
2018-05-13T15:59:09.288Z,35.90
2018-05-13T16:02:07.792Z,35.90
2018-05-13T16:05:05.144Z,36.20
2018-05-13T16:08:02.890Z,36.50
2018-05-13T16:11:00.869Z,37.00
2018-05-13T16:13:58.813Z,36.90
2018-05-13T16:16:56.640Z,37.00
2018-05-13T16:19:54.787Z,37.00
2018-05-13T16:22:52.527Z,37.00
2018-05-13T16:25:49.664Z,37.00
2018-05-13T16:28:47.337Z,37.20
2018-05-13T16:31:45.279Z,37.30
2018-05-13T16:34:43.760Z,37.30
2018-05-13T16:37:41.071Z,37.40
2018-05-13T16:40:38.995Z,37.70
2018-05-13T16:43:37.819Z,38.30
2018-05-13T16:46:35.789Z,38.30
2018-05-13T16:49:33.746Z,38.50
2018-05-13T16:52:31.797Z,38.50
2018-05-13T16:55:29.684Z,38.70
2018-05-13T16:58:27.684Z,38.80
2018-05-13T17:01:25.691Z,38.80
2018-05-13T17:04:23.700Z,39.10
2018-05-13T17:07:21.752Z,39.10
2018-05-13T17:10:18.821Z,39.80
2018-05-13T17:13:16.570Z,39.50
2018-05-13T17:16:14.258Z,39.90
2018-05-13T17:19:11.844Z,40.20
2018-05-13T17:22:09.597Z,40.50
2018-05-13T17:25:07.308Z,40.90
2018-05-13T17:28:04.386Z,41.20
2018-05-13T17:31:02.276Z,41.40
2018-05-13T17:34:00.046Z,41.40
2018-05-13T17:36:57.845Z,41.90
2018-05-13T17:39:56.600Z,41.60
2018-05-13T17:42:54.288Z,41.60
2018-05-13T17:45:52.975Z,42.00
2018-05-13T17:48:50.009Z,41.90
2018-05-13T17:51:47.975Z,41.60
2018-05-13T17:54:45.526Z,41.80
2018-05-13T17:57:42.814Z,42.40
2018-05-13T18:00:40.568Z,42.60
2018-05-13T18:03:38.301Z,42.70
2018-05-13T18:06:36.306Z,42.90
2018-05-13T18:09:34.192Z,42.80
2018-05-13T18:12:32.269Z,42.50
2018-05-13T18:15:29.408Z,42.50
2018-05-13T18:18:27.162Z,42.70
2018-05-13T18:21:26.034Z,43.00
2018-05-13T18:24:23.165Z,42.90
2018-05-13T18:27:20.965Z,43.10
2018-05-13T18:30:18.673Z,43.40
2018-05-13T18:33:16.718Z,43.60
2018-05-13T18:36:14.419Z,43.70
2018-05-13T18:39:12.452Z,44.10
2018-05-13T18:42:10.196Z,44.10
2018-05-13T18:45:07.932Z,44.40
2018-05-13T18:51:07.720Z,44.80
2018-05-13T18:54:05.820Z,45.10
2018-05-13T18:57:02.990Z,45.40
2018-05-13T19:00:00.264Z,45.70
2018-05-13T19:02:58.996Z,45.90
2018-05-13T19:05:56.868Z,45.90
2018-05-13T19:08:53.981Z,46.10
2018-05-13T19:11:52.490Z,46.80
2018-05-13T19:14:50.950Z,46.80
2018-05-13T19:17:48.789Z,47.40
2018-05-13T19:20:45.937Z,47.30
2018-05-13T19:23:43.791Z,47.60
2018-05-13T19:26:41.732Z,48.00
2018-05-13T19:29:39.110Z,48.30
2018-05-13T19:32:36.972Z,49.30
2018-05-13T19:35:35.864Z,51.30
2018-05-13T19:38:33.852Z,50.70
2018-05-13T19:41:31.912Z,51.00
2018-05-13T19:44:29.639Z,51.50
2018-05-13T19:47:27.499Z,51.90
2018-05-13T19:50:25.543Z,52.30
2018-05-13T19:53:23.061Z,52.50
2018-05-13T19:56:20.563Z,52.80
2018-05-13T19:59:18.467Z,53.40
2018-05-13T20:02:15.575Z,53.60
2018-05-13T20:05:13.469Z,54.10
2018-05-13T20:08:11.052Z,54.60
2018-05-13T20:11:08.733Z,54.90
2018-05-13T20:14:06.609Z,55.00
2018-05-13T20:17:04.250Z,55.20
2018-05-13T20:20:01.269Z,55.50
2018-05-13T20:23:11.101Z,55.90
2018-05-13T20:26:08.971Z,56.30
2018-05-13T20:29:06.757Z,56.20
2018-05-13T20:32:04.719Z,56.20
2018-05-13T20:35:02.591Z,56.80
2018-05-13T20:38:00.593Z,56.80
2018-05-13T20:40:58.458Z,57.60
2018-05-13T20:43:56.191Z,57.60
2018-05-13T20:46:54.021Z,58.30
2018-05-13T20:49:51.712Z,59.30
2018-05-13T20:52:49.552Z,60.80
2018-05-13T20:55:48.523Z,62.00
2018-05-13T20:58:46.393Z,62.90
2018-05-13T21:01:43.521Z,63.00
2018-05-13T21:04:40.662Z,62.00
2018-05-13T21:07:39.605Z,62.50
2018-05-13T21:10:37.433Z,62.40
2018-05-13T21:13:35.395Z,62.80
2018-05-13T21:16:33.165Z,64.20
2018-05-13T21:19:34.134Z,64.20
2018-05-13T21:22:31.257Z,64.20
2018-05-13T21:25:29.228Z,66.00
2018-05-13T21:28:27.241Z,67.10
2018-05-13T21:31:25.187Z,66.20
2018-05-13T21:34:23.044Z,66.30
2018-05-13T21:37:20.891Z,66.30
2018-05-13T21:40:18.864Z,66.80
2018-05-13T21:43:16.928Z,67.20
2018-05-13T21:46:14.077Z,67.20
2018-05-13T21:49:11.893Z,67.50
2018-05-13T21:52:10.688Z,67.10
2018-05-13T21:55:09.352Z,67.10
2018-05-13T21:58:06.784Z,67.40
2018-05-13T22:01:04.530Z,67.30
2018-05-13T22:04:02.508Z,66.80
2018-05-13T22:07:00.246Z,66.90
2018-05-13T22:09:58.035Z,66.60
2018-05-13T22:12:55.991Z,66.70
2018-05-13T22:15:55.727Z,67.20
2018-05-13T22:18:54.296Z,67.20
2018-05-13T22:21:53.235Z,67.80
2018-05-13T22:24:50.841Z,67.80
2018-05-13T22:27:48.680Z,68.10
2018-05-13T22:30:45.907Z,68.40
2018-05-13T22:33:44.651Z,69.00
2018-05-13T22:36:42.374Z,68.90
2018-05-13T22:39:40.294Z,69.50
2018-05-13T22:42:38.293Z,70.10
2018-05-13T22:45:36.975Z,71.50
2018-05-13T22:48:35.186Z,71.60
2018-05-13T22:51:33.304Z,72.20
2018-05-13T22:54:31.406Z,73.00
2018-05-13T22:57:29.497Z,73.30
2018-05-13T23:00:27.701Z,73.70
2018-05-13T23:03:25.544Z,73.70
2018-05-13T23:06:23.459Z,74.00
2018-05-13T23:09:21.248Z,74.50
2018-05-13T23:12:19.058Z,75.00
2018-05-13T23:15:16.721Z,75.60
2018-05-13T23:18:14.462Z,76.10
2018-05-13T23:21:11.619Z,77.10
2018-05-13T23:24:09.423Z,78.50
2018-05-13T23:27:07.336Z,77.80
2018-05-13T23:30:05.339Z,77.90
2018-05-13T23:33:03.355Z,79.30
2018-05-13T23:36:01.235Z,80.10
2018-05-13T23:38:59.166Z,80.20
2018-05-13T23:41:56.775Z,80.60
2018-05-13T23:44:54.640Z,81.80
2018-05-13T23:47:52.456Z,82.80
2018-05-13T23:50:50.129Z,83.50
2018-05-13T23:53:48.806Z,83.30
2018-05-13T23:56:45.854Z,84.20
2018-05-13T23:59:43.507Z,84.40
